Time;durP1;ratioP1;P1;durP2;ratioP2;P2;SDS_P1;SDS_P2;PMS_P1;PMS_P2;Temp;Humidity;BMP_temperature;BMP_pressure;BME280_temperature;BME280_humidity;BME280_pressure;Samples;Min_cycle;Max_cycle;Signal;HPM_P1;HPM_P2
2022/08/24 00:00:18;;;;;;;3.20;3.00;;;;;;;;;;5117407;28;20211;-67
2022/08/24 00:02:45;;;;;;;3.17;2.97;;;;;;;;;;5116607;28;20203;-67
2022/08/24 00:05:13;;;;;;;3.40;3.10;;;;;;;;;;5117099;28;20263;-67
2022/08/24 00:07:40;;;;;;;3.05;2.85;;;;;;;;;;5117314;28;20199;-67
2022/08/24 00:10:09;;;;;;;3.10;2.90;;;;;;;;;;5116515;28;20260;-67
2022/08/24 00:12:37;;;;;;;3.20;3.00;;;;;;;;;;5116103;28;20281;-67
2022/08/24 00:15:05;;;;;;;3.40;3.10;;;;;;;;;;5116326;28;20210;-68
2022/08/24 00:17:33;;;;;;;3.20;3.00;;;;;;;;;;5116954;28;20211;-67
2022/08/24 00:20:01;;;;;;;3.05;2.85;;;;;;;;;;5117051;28;20297;-68
2022/08/24 00:22:28;;;;;;;3.38;2.80;;;;;;;;;;5116451;28;20231;-67
2022/08/24 00:24:56;;;;;;;3.45;3.15;;;;;;;;;;5116730;28;20256;-67
2022/08/24 00:27:23;;;;;;;3.03;2.80;;;;;;;;;;5117226;28;20626;-67
2022/08/24 00:29:52;;;;;;;3.08;2.88;;;;;;;;;;5116758;28;20230;-67
2022/08/24 00:32:19;;;;;;;3.22;3.00;;;;;;;;;;5116311;28;20210;-67
2022/08/24 00:34:47;;;;;;;2.67;2.47;;;;;;;;;;5116569;28;20203;-68
2022/08/24 00:37:14;;;;;;;2.90;2.70;;;;;;;;;;5116546;28;20203;-67
2022/08/24 00:39:41;;;;;;;5.38;2.70;;;;;;;;;;5116521;28;20203;-67
2022/08/24 00:42:09;;;;;;;2.95;2.65;;;;;;;;;;5116306;28;20227;-67
2022/08/24 00:44:36;;;;;;;3.03;2.83;;;;;;;;;;5116479;28;20207;-67
2022/08/24 00:47:20;;;;;;;3.63;3.20;;;;;;;;;;5116693;28;20211;-68
2022/08/24 00:49:53;;;;;;;2.90;2.70;;;;;;;;;;5115964;28;20268;-67
2022/08/24 00:52:24;;;;;;;3.17;2.97;;;;;;;;;;5116318;28;20223;-67
2022/08/24 00:54:53;;;;;;;3.13;2.90;;;;;;;;;;5116560;28;20583;-67
2022/08/24 00:57:23;;;;;;;3.47;3.17;;;;;;;;;;5116877;28;20211;-68
2022/08/24 00:59:54;;;;;;;2.80;2.60;;;;;;;;;;5117125;28;20502;-68
2022/08/24 01:02:25;;;;;;;3.25;2.95;;;;;;;;;;5116256;28;20256;-67
2022/08/24 01:04:53;;;;;;;2.90;2.70;;;;;;;;;;5116917;28;20529;-67
2022/08/24 01:07:22;;;;;;;3.00;2.80;;;;;;;;;;5120148;28;20563;-67
2022/08/24 01:09:50;;;;;;;2.90;2.70;;;;;;;;;;5120348;28;20297;-67
2022/08/24 01:12:17;;;;;;;2.80;2.60;;;;;;;;;;5119791;28;20222;-67
2022/08/24 01:14:44;;;;;;;3.00;2.80;;;;;;;;;;5119784;28;20211;-67
2022/08/24 01:19:59;;;;;;;3.08;2.88;;;;;;;;;;5119797;28;20198;-68
2022/08/24 01:22:42;;;;;;;3.10;2.90;;;;;;;;;;5119525;28;21448;-67
2022/08/24 01:25:10;;;;;;;2.90;2.70;;;;;;;;;;5119774;28;20595;-67
2022/08/24 01:27:38;;;;;;;3.10;2.90;;;;;;;;;;5120181;28;20203;-68
2022/08/24 01:30:09;;;;;;;3.20;3.00;;;;;;;;;;5120015;28;20210;-68
2022/08/24 01:32:38;;;;;;;3.08;2.88;;;;;;;;;;5119471;28;20284;-67
2022/08/24 01:35:05;;;;;;;3.38;3.08;;;;;;;;;;5119999;28;20198;-67
2022/08/24 01:37:33;;;;;;;3.13;2.92;;;;;;;;;;5120139;28;20534;-67
2022/08/24 01:40:01;;;;;;;3.45;3.15;;;;;;;;;;5120370;28;20211;-68
2022/08/24 01:42:32;;;;;;;3.03;2.83;;;;;;;;;;5119295;28;20227;-68
2022/08/24 01:45:00;;;;;;;3.40;3.10;;;;;;;;;;5119336;28;20289;-68
2022/08/24 01:47:27;;;;;;;2.60;2.50;;;;;;;;;;5120138;28;20214;-68
2022/08/24 01:49:55;;;;;;;3.40;3.15;;;;;;;;;;5119901;28;20493;-68
2022/08/24 01:52:23;;;;;;;3.25;3.05;;;;;;;;;;5119512;28;20639;-67
2022/08/24 01:54:50;;;;;;;3.15;2.75;;;;;;;;;;5119700;28;20209;-67
2022/08/24 01:57:19;;;;;;;3.22;3.03;;;;;;;;;;5119529;28;20609;-68
2022/08/24 01:59:47;;;;;;;3.05;2.85;;;;;;;;;;5119468;27;20286;-68
2022/08/24 02:02:17;;;;;;;3.17;2.97;;;;;;;;;;5119555;28;20221;-67
2022/08/24 02:04:44;;;;;;;3.30;3.00;;;;;;;;;;5119447;28;20246;-67
2022/08/24 02:07:12;;;;;;;3.00;2.80;;;;;;;;;;5119767;28;20275;-68
2022/08/24 02:09:39;;;;;;;2.90;2.70;;;;;;;;;;5119631;28;20301;-68
2022/08/24 02:12:07;;;;;;;3.05;2.85;;;;;;;;;;5118999;28;20275;-68
2022/08/24 02:14:35;;;;;;;3.83;2.90;;;;;;;;;;5119297;28;20275;-68
2022/08/24 02:17:04;;;;;;;2.90;2.70;;;;;;;;;;5119319;28;20203;-67
2022/08/24 02:19:31;;;;;;;2.95;2.75;;;;;;;;;;5119704;28;20294;-67
2022/08/24 02:21:59;;;;;;;3.08;2.78;;;;;;;;;;5119066;28;20248;-67
2022/08/24 02:24:27;;;;;;;2.97;2.78;;;;;;;;;;5119112;28;20272;-68
2022/08/24 02:26:54;;;;;;;2.83;2.63;;;;;;;;;;5119036;28;20203;-67
2022/08/24 02:29:21;;;;;;;2.88;2.67;;;;;;;;;;5118682;28;20194;-67
2022/08/24 02:31:49;;;;;;;2.92;2.72;;;;;;;;;;5118860;28;20317;-67
2022/08/24 02:34:17;;;;;;;3.50;3.20;;;;;;;;;;5118780;28;20203;-67
2022/08/24 02:36:45;;;;;;;3.00;2.80;;;;;;;;;;5118480;28;20583;-67
2022/08/24 02:39:12;;;;;;;3.00;2.80;;;;;;;;;;5118976;28;20238;-67
2022/08/24 02:41:40;;;;;;;2.88;2.67;;;;;;;;;;5118783;28;20607;-68
2022/08/24 02:44:08;;;;;;;2.80;2.60;;;;;;;;;;5118776;28;20259;-67
2022/08/24 02:46:35;;;;;;;3.55;3.08;;;;;;;;;;5118656;28;20203;-67
2022/08/24 02:49:03;;;;;;;3.08;2.88;;;;;;;;;;5118364;28;20213;-68
2022/08/24 02:51:33;;;;;;;3.10;2.80;;;;;;;;;;5117621;28;20195;-68
2022/08/24 02:54:02;;;;;;;2.78;2.58;;;;;;;;;;5117995;28;20567;-68
2022/08/24 02:56:30;;;;;;;3.10;2.90;;;;;;;;;;5117853;28;20203;-67
2022/08/24 02:58:57;;;;;;;2.53;2.40;;;;;;;;;;5118379;28;20264;-68
2022/08/24 03:01:24;;;;;;;3.30;3.10;;;;;;;;;;5117821;28;20620;-68
2022/08/24 03:03:52;;;;;;;2.80;2.60;;;;;;;;;;5118603;28;20210;-67
2022/08/24 03:06:19;;;;;;;2.53;2.38;;;;;;;;;;5118472;28;20207;-68
2022/08/24 03:08:49;;;;;;;2.83;2.63;;;;;;;;;;5117868;28;20587;-67
2022/08/24 03:11:16;;;;;;;3.00;2.80;;;;;;;;;;5117656;28;20214;-67
2022/08/24 03:13:43;;;;;;;3.25;3.05;;;;;;;;;;5117973;28;20206;-67
2022/08/24 03:16:11;;;;;;;2.80;2.60;;;;;;;;;;5118091;28;20203;-68
2022/08/24 03:18:38;;;;;;;2.63;2.53;;;;;;;;;;5117410;28;20264;-67
2022/08/24 03:21:06;;;;;;;3.00;2.80;;;;;;;;;;5117854;28;20202;-68
2022/08/24 03:23:34;;;;;;;3.00;2.70;;;;;;;;;;5118272;28;20206;-67
2022/08/24 03:26:03;;;;;;;3.28;3.03;;;;;;;;;;5118044;27;20497;-66
2022/08/24 03:28:31;;;;;;;2.83;2.53;;;;;;;;;;5117083;28;20252;-67
2022/08/24 03:30:58;;;;;;;2.80;2.60;;;;;;;;;;5117658;28;20232;-67
2022/08/24 03:33:26;;;;;;;3.03;2.70;;;;;;;;;;5118036;28;20579;-67
2022/08/24 03:35:54;;;;;;;3.00;2.75;;;;;;;;;;5117500;28;20207;-67
2022/08/24 03:38:21;;;;;;;3.78;2.40;;;;;;;;;;5117018;28;20195;-67
2022/08/24 03:40:48;;;;;;;2.80;2.60;;;;;;;;;;5117546;28;20242;-67
2022/08/24 03:45:59;;;;;;;2.88;2.67;;;;;;;;;;5117043;28;20586;-67
2022/08/24 03:48:27;;;;;;;3.08;2.88;;;;;;;;;;5116535;28;20503;-67
2022/08/24 03:50:54;;;;;;;2.85;2.50;;;;;;;;;;5116938;28;20226;-67
2022/08/24 03:53:22;;;;;;;3.00;2.80;;;;;;;;;;5116573;28;20524;-67
2022/08/24 03:55:49;;;;;;;2.92;2.72;;;;;;;;;;5117033;28;20441;-67
2022/08/24 03:58:18;;;;;;;2.72;2.53;;;;;;;;;;5116790;28;20291;-68
2022/08/24 04:00:45;;;;;;;2.97;2.78;;;;;;;;;;5117152;28;20211;-67
2022/08/24 04:03:13;;;;;;;3.13;2.92;;;;;;;;;;5117407;28;20190;-67
2022/08/24 04:05:41;;;;;;;3.00;2.80;;;;;;;;;;5116949;28;20306;-67
2022/08/24 04:08:09;;;;;;;2.90;2.70;;;;;;;;;;5116607;28;20454;-67
2022/08/24 04:10:37;;;;;;;3.20;3.00;;;;;;;;;;5116354;28;20215;-67
2022/08/24 04:13:07;;;;;;;3.17;2.88;;;;;;;;;;5116873;28;20227;-67
2022/08/24 04:15:39;;;;;;;2.90;2.70;;;;;;;;;;5116956;28;20234;-66
2022/08/24 04:18:07;;;;;;;2.90;2.70;;;;;;;;;;5116320;28;20203;-67
2022/08/24 04:20:38;;;;;;;3.10;2.90;;;;;;;;;;5116755;28;20203;-67
2022/08/24 04:23:06;;;;;;;3.17;2.88;;;;;;;;;;5116320;28;20654;-68
2022/08/24 04:25:39;;;;;;;2.92;2.75;;;;;;;;;;5117096;28;20246;-68
2022/08/24 04:28:06;;;;;;;2.60;2.40;;;;;;;;;;5116279;28;20478;-68
2022/08/24 04:30:33;;;;;;;3.20;2.95;;;;;;;;;;5116129;28;20298;-67
2022/08/24 04:33:02;;;;;;;2.95;2.75;;;;;;;;;;5116435;28;20486;-68
2022/08/24 04:35:29;;;;;;;2.70;2.50;;;;;;;;;;5116536;28;20250;-67
2022/08/24 04:37:57;;;;;;;2.67;2.45;;;;;;;;;;5115927;28;20203;-67
2022/08/24 04:40:24;;;;;;;3.15;2.95;;;;;;;;;;5095733;28;20553;-67
2022/08/24 04:42:51;;;;;;;2.97;2.78;;;;;;;;;;5099170;28;20560;-67
2022/08/24 04:45:19;;;;;;;2.70;2.50;;;;;;;;;;5099118;28;20676;-67
2022/08/24 04:47:46;;;;;;;2.70;2.50;;;;;;;;;;5099218;28;20212;-67
2022/08/24 04:50:15;;;;;;;2.80;2.60;;;;;;;;;;5117322;28;20271;-67
2022/08/24 04:52:42;;;;;;;3.33;2.83;;;;;;;;;;5118962;28;20230;-68
2022/08/24 04:55:10;;;;;;;2.90;2.70;;;;;;;;;;5118806;28;20471;-67
2022/08/24 04:57:37;;;;;;;2.70;2.50;;;;;;;;;;5118618;28;20268;-66
2022/08/24 05:00:07;;;;;;;2.83;2.63;;;;;;;;;;5118608;28;20231;-69
2022/08/24 05:02:35;;;;;;;3.20;3.00;;;;;;;;;;5119260;28;20769;-67
2022/08/24 05:05:02;;;;;;;3.10;2.80;;;;;;;;;;5119003;28;20210;-67
2022/08/24 05:07:31;;;;;;;2.90;2.70;;;;;;;;;;5118258;28;20687;-67
2022/08/24 05:09:58;;;;;;;2.70;2.50;;;;;;;;;;5118856;28;20268;-67
2022/08/24 05:12:26;;;;;;;2.67;2.47;;;;;;;;;;5119072;28;20227;-67
2022/08/24 05:14:54;;;;;;;3.03;2.83;;;;;;;;;;5118079;28;20370;-67
2022/08/24 05:17:21;;;;;;;3.90;2.67;;;;;;;;;;5118890;28;20514;-67
2022/08/24 05:19:49;;;;;;;2.75;2.50;;;;;;;;;;5117428;28;20199;-67
2022/08/24 05:22:17;;;;;;;2.85;2.65;;;;;;;;;;5118967;28;20243;-67
2022/08/24 05:24:45;;;;;;;3.50;3.22;;;;;;;;;;5118006;28;20203;-67
2022/08/24 05:27:13;;;;;;;3.40;3.10;;;;;;;;;;5117707;28;20268;-67
2022/08/24 05:29:40;;;;;;;3.25;3.05;;;;;;;;;;5117402;28;20199;-68
2022/08/24 05:32:07;;;;;;;3.30;3.10;;;;;;;;;;5117624;28;20583;-67
2022/08/24 05:34:35;;;;;;;3.67;3.38;;;;;;;;;;5117982;28;20213;-67
2022/08/24 05:37:02;;;;;;;3.47;3.28;;;;;;;;;;5117975;28;20207;-67
2022/08/24 05:39:30;;;;;;;3.80;3.60;;;;;;;;;;5117516;28;20225;-67
2022/08/24 05:41:59;;;;;;;3.25;3.05;;;;;;;;;;5118180;28;20254;-66
2022/08/24 05:44:29;;;;;;;3.90;3.58;;;;;;;;;;5117196;28;20207;-68
2022/08/24 05:46:57;;;;;;;3.70;3.45;;;;;;;;;;5117056;28;20268;-67
2022/08/24 05:49:24;;;;;;;3.30;3.10;;;;;;;;;;5116700;28;20540;-67
2022/08/24 05:51:52;;;;;;;3.75;3.45;;;;;;;;;;5117552;28;20248;-67
2022/08/24 05:54:19;;;;;;;3.63;3.33;;;;;;;;;;5118403;28;20230;-68
2022/08/24 05:56:47;;;;;;;3.40;3.20;;;;;;;;;;5117622;28;20203;-67
2022/08/24 05:59:17;;;;;;;3.20;3.00;;;;;;;;;;5116679;28;20195;-67
2022/08/24 06:01:45;;;;;;;3.40;3.10;;;;;;;;;;5117454;28;20199;-67
2022/08/24 06:04:13;;;;;;;3.70;3.40;;;;;;;;;;5117019;28;20210;-67
2022/08/24 06:06:41;;;;;;;3.35;3.15;;;;;;;;;;5117412;28;20215;-67
2022/08/24 06:09:11;;;;;;;3.17;2.88;;;;;;;;;;5116350;28;20207;-67
2022/08/24 06:11:39;;;;;;;3.60;3.30;;;;;;;;;;5116619;28;20666;-67
2022/08/24 06:14:08;;;;;;;3.60;3.30;;;;;;;;;;5116388;28;20229;-67
2022/08/24 06:16:37;;;;;;;3.65;3.42;;;;;;;;;;5116630;28;20211;-68
2022/08/24 06:19:05;;;;;;;3.42;3.22;;;;;;;;;;5115807;28;20602;-68
2022/08/24 06:21:33;;;;;;;3.67;3.38;;;;;;;;;;5115407;28;20211;-68
2022/08/24 06:24:01;;;;;;;3.15;2.92;;;;;;;;;;5116399;28;20260;-67
2022/08/24 06:29:13;;;;;;;3.65;3.45;;;;;;;;;;5115991;28;20232;-68
2022/08/24 06:31:44;;;;;;;3.40;3.10;;;;;;;;;;5116191;27;20207;-67
2022/08/24 06:34:12;;;;;;;3.97;3.67;;;;;;;;;;5116366;28;20222;-67
2022/08/24 06:36:39;;;;;;;3.42;3.15;;;;;;;;;;5116383;28;20203;-68
2022/08/24 06:39:07;;;;;;;3.42;3.22;;;;;;;;;;5115165;28;20203;-68
2022/08/24 06:41:35;;;;;;;3.85;3.55;;;;;;;;;;5114876;28;20262;-67
2022/08/24 06:44:03;;;;;;;3.28;3.08;;;;;;;;;;5115171;28;20490;-67
2022/08/24 06:46:30;;;;;;;3.80;3.50;;;;;;;;;;5115733;28;20210;-68
2022/08/24 06:48:59;;;;;;;3.30;3.10;;;;;;;;;;5115235;28;20275;-68
2022/08/24 06:51:26;;;;;;;3.60;3.40;;;;;;;;;;5116297;28;20442;-68
2022/08/24 06:53:54;;;;;;;3.20;3.00;;;;;;;;;;5116132;28;20219;-68
2022/08/24 06:56:22;;;;;;;3.35;3.10;;;;;;;;;;5115494;28;20286;-67
2022/08/24 06:58:50;;;;;;;3.35;3.15;;;;;;;;;;5116453;28;20243;-67
2022/08/24 07:01:19;;;;;;;3.60;3.30;;;;;;;;;;5115541;28;20235;-69
2022/08/24 07:03:46;;;;;;;3.40;3.20;;;;;;;;;;5114651;28;20202;-67
2022/08/24 07:06:15;;;;;;;3.50;3.20;;;;;;;;;;5115700;28;20211;-67
2022/08/24 07:08:43;;;;;;;3.65;3.35;;;;;;;;;;5115141;28;20199;-67
2022/08/24 07:11:12;;;;;;;3.72;3.42;;;;;;;;;;5114091;28;20512;-67
2022/08/24 07:13:39;;;;;;;3.90;3.58;;;;;;;;;;5115100;28;20223;-68
2022/08/24 07:16:08;;;;;;;4.03;3.72;;;;;;;;;;5115464;28;20206;-69
2022/08/24 07:18:36;;;;;;;3.75;3.45;;;;;;;;;;5113510;28;20602;-69
2022/08/24 07:21:04;;;;;;;4.82;4.18;;;;;;;;;;5116495;28;20305;-69
2022/08/24 07:23:33;;;;;;;4.05;3.65;;;;;;;;;;5116020;28;20722;-68
2022/08/24 07:26:05;;;;;;;4.55;4.03;;;;;;;;;;5114794;28;20246;-68
2022/08/24 07:28:35;;;;;;;4.78;4.20;;;;;;;;;;5113836;28;20203;-68
2022/08/24 07:31:03;;;;;;;4.15;3.75;;;;;;;;;;5115166;28;20259;-68
2022/08/24 07:33:30;;;;;;;4.65;4.25;;;;;;;;;;5115231;28;20242;-67
2022/08/24 07:35:57;;;;;;;4.90;3.65;;;;;;;;;;5114822;28;20272;-67
2022/08/24 07:38:25;;;;;;;4.18;3.78;;;;;;;;;;5114397;28;20210;-67
2022/08/24 07:40:53;;;;;;;4.40;4.00;;;;;;;;;;5113142;28;20321;-68
2022/08/24 07:43:21;;;;;;;4.47;4.07;;;;;;;;;;5115100;28;20287;-68
2022/08/24 07:45:51;;;;;;;4.50;4.10;;;;;;;;;;5114275;28;20765;-69
2022/08/24 07:48:18;;;;;;;4.20;3.80;;;;;;;;;;5116340;28;20203;-68
2022/08/24 07:50:46;;;;;;;4.20;3.83;;;;;;;;;;5113561;28;20206;-67
2022/08/24 07:53:14;;;;;;;3.50;3.30;;;;;;;;;;5114273;28;20227;-67
2022/08/24 07:55:42;;;;;;;4.15;3.78;;;;;;;;;;5113677;28;20252;-67
2022/08/24 07:58:11;;;;;;;4.18;3.78;;;;;;;;;;5112405;28;20217;-68
2022/08/24 08:00:38;;;;;;;4.40;4.03;;;;;;;;;;5113118;28;20274;-68
2022/08/24 08:03:06;;;;;;;4.72;4.32;;;;;;;;;;5113354;28;20195;-68
2022/08/24 08:05:33;;;;;;;4.68;4.28;;;;;;;;;;5109536;28;20227;-69
2022/08/24 08:08:00;;;;;;;4.65;3.85;;;;;;;;;;5114565;28;20206;-68
2022/08/24 08:10:29;;;;;;;3.92;3.53;;;;;;;;;;5111952;28;20218;-68
2022/08/24 08:12:57;;;;;;;4.10;3.80;;;;;;;;;;5113682;28;20203;-68
2022/08/24 08:15:25;;;;;;;4.30;3.90;;;;;;;;;;5115347;28;20202;-68
2022/08/24 08:17:53;;;;;;;3.70;3.40;;;;;;;;;;5117038;28;20550;-68
2022/08/24 08:20:20;;;;;;;4.32;3.92;;;;;;;;;;5118073;28;20298;-67
2022/08/24 08:25:33;;;;;;;6.38;4.88;;;;;;;;;;5117959;28;20190;-68
2022/08/24 08:28:00;;;;;;;5.22;4.72;;;;;;;;;;5117788;27;20211;-69
2022/08/24 08:30:29;;;;;;;5.15;4.70;;;;;;;;;;5116289;28;20206;-69
2022/08/24 08:32:57;;;;;;;5.97;4.93;;;;;;;;;;5116500;28;20206;-69
2022/08/24 08:35:25;;;;;;;5.00;4.60;;;;;;;;;;5116796;28;20684;-69
2022/08/24 08:37:52;;;;;;;7.90;4.60;;;;;;;;;;5117971;28;20699;-69
2022/08/24 08:40:25;;;;;;;5.32;4.82;;;;;;;;;;5116892;28;20602;-69
2022/08/24 08:43:00;;;;;;;4.97;4.47;;;;;;;;;;5119080;28;20388;-69
2022/08/24 08:45:33;;;;;;;5.30;4.80;;;;;;;;;;5119452;28;20293;-69
2022/08/24 08:48:19;;;;;;;5.32;4.82;;;;;;;;;;5117334;28;20202;-69
2022/08/24 08:50:57;;;;;;;5.95;5.45;;;;;;;;;;5115280;28;20205;-68
2022/08/24 08:53:35;;;;;;;5.47;4.97;;;;;;;;;;5116478;28;20202;-68
2022/08/24 08:56:06;;;;;;;5.85;5.30;;;;;;;;;;5116621;28;20226;-68
2022/08/24 08:58:54;;;;;;;6.43;5.53;;;;;;;;;;5117324;28;20211;-69
2022/08/24 09:01:28;;;;;;;5.45;5.00;;;;;;;;;;5111542;28;20206;-68
2022/08/24 09:04:06;;;;;;;5.88;5.15;;;;;;;;;;5116027;28;20571;-69
2022/08/24 09:06:39;;;;;;;6.70;5.47;;;;;;;;;;5116929;28;20202;-70
2022/08/24 09:09:11;;;;;;;7.05;5.53;;;;;;;;;;5115945;28;20591;-68
2022/08/24 09:11:44;;;;;;;6.32;5.72;;;;;;;;;;5116363;28;20590;-69
2022/08/24 09:14:18;;;;;;;5.93;5.43;;;;;;;;;;5118392;28;20230;-69
2022/08/24 09:17:00;;;;;;;6.38;5.88;;;;;;;;;;5116859;28;20263;-69
2022/08/24 09:19:32;;;;;;;6.93;6.25;;;;;;;;;;5115980;28;20551;-69
2022/08/24 09:22:10;;;;;;;5.97;5.50;;;;;;;;;;5116105;28;20230;-69
2022/08/24 09:24:52;;;;;;;6.03;5.50;;;;;;;;;;5115838;27;20259;-70
2022/08/24 09:27:23;;;;;;;5.60;5.13;;;;;;;;;;5100965;28;20453;-69
2022/08/24 09:29:59;;;;;;;6.05;5.47;;;;;;;;;;5114681;27;20187;-68
2022/08/24 09:32:47;;;;;;;5.20;4.75;;;;;;;;;;5115525;28;20218;-69
2022/08/24 09:35:16;;;;;;;5.68;5.20;;;;;;;;;;5114276;28;20615;-69
2022/08/24 09:37:53;;;;;;;5.82;5.32;;;;;;;;;;5115441;28;20195;-68
2022/08/24 09:40:30;;;;;;;5.40;4.93;;;;;;;;;;5114919;28;20579;-68
2022/08/24 09:43:25;;;;;;;5.75;5.25;;;;;;;;;;5114477;28;20306;-69
2022/08/24 09:46:07;;;;;;;5.43;4.93;;;;;;;;;;5113194;28;20601;-69
2022/08/24 09:49:05;;;;;;;5.50;5.05;;;;;;;;;;5112824;28;20203;-68
2022/08/24 09:51:53;;;;;;;5.30;4.80;;;;;;;;;;5113891;28;20454;-69
2022/08/24 09:54:44;;;;;;;6.00;5.50;;;;;;;;;;5109347;28;20642;-69
2022/08/24 09:57:26;;;;;;;5.70;5.20;;;;;;;;;;5114616;28;20210;-69
2022/08/24 10:00:04;;;;;;;4.55;4.20;;;;;;;;;;5113603;28;20273;-68
2022/08/24 10:02:41;;;;;;;5.25;4.82;;;;;;;;;;5113924;28;20207;-68
2022/08/24 10:05:13;;;;;;;5.35;4.95;;;;;;;;;;5112265;28;20595;-68
2022/08/24 10:07:47;;;;;;;5.30;4.90;;;;;;;;;;5113558;28;20202;-68
2022/08/24 10:10:21;;;;;;;5.40;5.00;;;;;;;;;;5113524;28;20422;-69
2022/08/24 10:12:58;;;;;;;5.40;5.00;;;;;;;;;;5112948;28;20203;-70
2022/08/24 10:15:28;;;;;;;5.05;4.65;;;;;;;;;;5113105;28;20333;-68
2022/08/24 10:18:08;;;;;;;5.47;5.00;;;;;;;;;;5113430;28;20202;-69
2022/08/24 10:20:44;;;;;;;5.32;4.85;;;;;;;;;;5113399;28;20587;-69
2022/08/24 10:23:23;;;;;;;5.35;4.95;;;;;;;;;;5113777;28;20634;-69
2022/08/24 10:25:53;;;;;;;5.10;4.70;;;;;;;;;;5114531;28;20206;-69
2022/08/24 10:28:34;;;;;;;5.00;4.70;;;;;;;;;;5114620;28;20203;-69
2022/08/24 10:31:05;;;;;;;5.10;4.70;;;;;;;;;;5113074;28;20287;-69
2022/08/24 10:33:37;;;;;;;5.18;4.78;;;;;;;;;;5113457;28;20206;-69
2022/08/24 10:36:21;;;;;;;4.78;4.43;;;;;;;;;;5113046;28;20194;-68
2022/08/24 10:41:49;;;;;;;4.90;4.50;;;;;;;;;;5112192;28;20624;-69
2022/08/24 10:44:31;;;;;;;5.45;4.72;;;;;;;;;;5114529;28;20198;-69
2022/08/24 10:46:59;;;;;;;5.13;4.72;;;;;;;;;;5110706;28;20571;-69
2022/08/24 10:49:47;;;;;;;5.25;4.85;;;;;;;;;;5112806;28;20657;-68
2022/08/24 10:52:41;;;;;;;4.63;4.20;;;;;;;;;;5091957;28;20797;-68
2022/08/24 10:55:16;;;;;;;5.30;4.90;;;;;;;;;;5093090;28;20600;-68
2022/08/24 10:57:48;;;;;;;5.03;4.63;;;;;;;;;;5091815;28;20225;-69
2022/08/24 11:00:19;;;;;;;4.68;4.28;;;;;;;;;;5097635;28;20263;-69
2022/08/24 11:02:47;;;;;;;4.90;4.50;;;;;;;;;;5113297;28;20610;-69
2022/08/24 11:05:16;;;;;;;5.40;4.90;;;;;;;;;;5112994;28;20590;-69
2022/08/24 11:07:56;;;;;;;5.10;4.60;;;;;;;;;;5112220;28;20571;-68
2022/08/24 11:10:25;;;;;;;5.20;4.60;;;;;;;;;;5113097;28;20255;-69
2022/08/24 11:12:52;;;;;;;5.18;4.70;;;;;;;;;;5111851;28;20199;-69
2022/08/24 11:15:22;;;;;;;5.00;4.60;;;;;;;;;;5113249;28;20508;-69
2022/08/24 11:17:55;;;;;;;4.30;4.00;;;;;;;;;;5112759;28;20202;-69
2022/08/24 11:20:26;;;;;;;4.57;4.18;;;;;;;;;;5112372;28;20202;-69
2022/08/24 11:23:01;;;;;;;4.97;4.57;;;;;;;;;;5113598;28;20199;-68
2022/08/24 11:25:30;;;;;;;4.68;4.22;;;;;;;;;;5111692;28;20563;-69
2022/08/24 11:28:00;;;;;;;4.82;4.43;;;;;;;;;;5113252;28;20268;-69
2022/08/24 11:30:29;;;;;;;5.93;4.40;;;;;;;;;;5112840;28;20206;-68
2022/08/24 11:32:57;;;;;;;5.25;4.75;;;;;;;;;;5111981;28;20521;-68
2022/08/24 11:35:27;;;;;;;4.90;4.50;;;;;;;;;;5112301;28;20291;-69
2022/08/24 11:37:56;;;;;;;4.97;4.50;;;;;;;;;;5112782;28;20203;-68
2022/08/24 11:40:27;;;;;;;5.03;4.63;;;;;;;;;;5112306;28;20195;-68
2022/08/24 11:43:02;;;;;;;4.78;4.38;;;;;;;;;;5112776;28;20199;-68
2022/08/24 11:45:34;;;;;;;4.80;4.40;;;;;;;;;;5112687;28;20303;-69
2022/08/24 11:48:05;;;;;;;6.75;5.05;;;;;;;;;;5111376;28;20214;-69
2022/08/24 11:50:35;;;;;;;4.97;4.57;;;;;;;;;;5111454;28;20516;-68
2022/08/24 11:53:14;;;;;;;5.00;4.60;;;;;;;;;;5111507;28;20283;-68
2022/08/24 11:55:48;;;;;;;5.00;4.60;;;;;;;;;;5111687;28;20307;-68
2022/08/24 11:58:19;;;;;;;4.95;4.55;;;;;;;;;;5116053;28;20202;-69
2022/08/24 12:00:48;;;;;;;4.97;4.47;;;;;;;;;;5112750;28;20187;-69
2022/08/24 12:03:25;;;;;;;5.10;4.70;;;;;;;;;;5111523;28;20280;-69
2022/08/24 12:05:55;;;;;;;4.90;4.47;;;;;;;;;;5112355;28;20213;-69
2022/08/24 12:08:26;;;;;;;4.97;4.57;;;;;;;;;;5111627;28;20203;-69
2022/08/24 12:11:00;;;;;;;5.28;4.88;;;;;;;;;;5110766;28;20298;-69
2022/08/24 12:13:31;;;;;;;5.32;4.90;;;;;;;;;;5111667;28;20206;-69
2022/08/24 12:16:04;;;;;;;5.25;4.85;;;;;;;;;;5112085;28;20342;-69
2022/08/24 12:18:41;;;;;;;5.05;4.65;;;;;;;;;;5110760;28;20211;-69
2022/08/24 12:21:10;;;;;;;5.45;4.95;;;;;;;;;;5111471;28;20198;-69
2022/08/24 12:23:39;;;;;;;5.50;5.00;;;;;;;;;;5112629;28;20626;-69
2022/08/24 12:26:12;;;;;;;5.45;5.05;;;;;;;;;;5111993;28;20477;-69
2022/08/24 12:28:41;;;;;;;5.28;4.80;;;;;;;;;;5111738;28;20526;-69
2022/08/24 12:31:10;;;;;;;5.50;5.00;;;;;;;;;;5111151;28;20688;-70
2022/08/24 12:33:38;;;;;;;5.40;4.90;;;;;;;;;;5111247;28;20316;-69
2022/08/24 12:36:11;;;;;;;5.00;4.60;;;;;;;;;;5112011;28;20304;-69
2022/08/24 12:38:40;;;;;;;5.03;4.63;;;;;;;;;;5110672;28;20214;-69
2022/08/24 12:41:15;;;;;;;4.93;4.53;;;;;;;;;;5112290;28;20630;-69
2022/08/24 12:43:44;;;;;;;5.15;4.70;;;;;;;;;;5110658;28;20263;-69
2022/08/24 12:46:14;;;;;;;5.20;4.80;;;;;;;;;;5111277;28;20207;-68
2022/08/24 12:48:43;;;;;;;5.68;5.07;;;;;;;;;;5112044;28;20268;-69
2022/08/24 12:51:15;;;;;;;5.25;4.85;;;;;;;;;;5110823;28;20271;-68
2022/08/24 12:54:01;;;;;;;5.28;4.80;;;;;;;;;;5110299;28;20275;-68
2022/08/24 12:56:52;;;;;;;5.13;4.72;;;;;;;;;;5101743;28;20576;-69
2022/08/24 12:59:24;;;;;;;5.07;4.68;;;;;;;;;;5095833;28;20579;-68
2022/08/24 13:01:59;;;;;;;5.30;4.85;;;;;;;;;;5110708;28;20287;-68
2022/08/24 13:04:40;;;;;;;4.85;4.45;;;;;;;;;;5114942;28;20202;-68
2022/08/24 13:07:09;;;;;;;5.63;5.13;;;;;;;;;;5115101;28;20593;-68
2022/08/24 13:09:38;;;;;;;5.72;5.20;;;;;;;;;;5115581;28;20259;-68
2022/08/24 13:12:21;;;;;;;5.80;5.40;;;;;;;;;;5114854;28;20199;-69
2022/08/24 13:14:51;;;;;;;5.35;4.85;;;;;;;;;;5079761;28;20284;-68
2022/08/24 13:17:19;;;;;;;5.15;4.65;;;;;;;;;;5113722;28;20229;-69
2022/08/24 13:19:48;;;;;;;4.93;4.63;;;;;;;;;;5113575;28;20210;-69
2022/08/24 13:22:34;;;;;;;4.97;4.60;;;;;;;;;;5113511;28;20571;-69
2022/08/24 13:25:03;;;;;;;5.50;5.10;;;;;;;;;;5114358;28;20260;-69
2022/08/24 13:27:51;;;;;;;4.90;4.50;;;;;;;;;;5113198;28;20214;-68
2022/08/24 13:30:25;;;;;;;5.45;5.05;;;;;;;;;;5113968;28;20210;-70
2022/08/24 13:32:58;;;;;;;5.60;5.10;;;;;;;;;;5113380;28;20557;-70
2022/08/24 13:35:53;;;;;;;5.30;4.90;;;;;;;;;;5111965;28;20223;-68
2022/08/24 13:38:40;;;;;;;5.63;5.22;;;;;;;;;;5114006;28;20213;-68
2022/08/24 13:41:13;;;;;;;5.65;5.07;;;;;;;;;;5113832;28;20230;-69
2022/08/24 13:43:44;;;;;;;5.40;5.00;;;;;;;;;;5112046;28;20226;-69
2022/08/24 13:46:16;;;;;;;5.45;5.05;;;;;;;;;;5112980;28;20270;-70
2022/08/24 13:48:49;;;;;;;5.40;5.00;;;;;;;;;;5111239;28;20195;-69
2022/08/24 13:51:25;;;;;;;5.30;4.90;;;;;;;;;;5112168;28;20458;-69
2022/08/24 13:54:04;;;;;;;5.35;4.95;;;;;;;;;;5112350;28;20229;-69
2022/08/24 13:56:37;;;;;;;5.30;4.90;;;;;;;;;;5112151;28;20283;-69
2022/08/24 13:59:08;;;;;;;5.32;4.93;;;;;;;;;;5112861;28;20207;-69
2022/08/24 14:01:43;;;;;;;5.10;4.70;;;;;;;;;;5112780;28;20289;-68
2022/08/24 14:04:19;;;;;;;5.40;4.90;;;;;;;;;;5111927;28;20202;-69
2022/08/24 14:06:52;;;;;;;5.80;5.30;;;;;;;;;;5112224;28;20206;-68
2022/08/24 14:09:28;;;;;;;5.40;5.00;;;;;;;;;;5113412;28;20207;-68
2022/08/24 14:12:05;;;;;;;5.28;4.88;;;;;;;;;;5113651;28;20229;-69
2022/08/24 14:14:43;;;;;;;5.82;5.32;;;;;;;;;;5112803;28;20290;-70
2022/08/24 14:20:04;;;;;;;5.20;4.80;;;;;;;;;;5112342;28;20297;-69
2022/08/24 14:22:34;;;;;;;5.25;4.85;;;;;;;;;;5113157;28;20238;-69
2022/08/24 14:25:13;;;;;;;5.40;4.90;;;;;;;;;;5114175;28;20199;-69
2022/08/24 14:27:42;;;;;;;5.18;4.82;;;;;;;;;;5115307;28;20267;-69
2022/08/24 14:30:28;;;;;;;5.45;5.05;;;;;;;;;;5113962;28;20315;-69
2022/08/24 14:33:10;;;;;;;5.88;5.43;;;;;;;;;;5109023;28;20322;-69
2022/08/24 14:35:40;;;;;;;5.28;4.88;;;;;;;;;;5113077;28;20234;-69
2022/08/24 14:38:10;;;;;;;5.00;4.60;;;;;;;;;;5113132;28;20264;-68
2022/08/24 14:40:39;;;;;;;5.05;4.65;;;;;;;;;;5112918;28;20199;-69
2022/08/24 14:43:19;;;;;;;6.00;5.05;;;;;;;;;;5112603;28;20409;-69
2022/08/24 14:45:52;;;;;;;4.82;4.43;;;;;;;;;;5111817;28;20199;-68
2022/08/24 14:48:34;;;;;;;5.30;4.80;;;;;;;;;;5112321;28;20211;-68
2022/08/24 14:51:06;;;;;;;5.70;5.20;;;;;;;;;;5111243;28;20634;-68
2022/08/24 14:53:47;;;;;;;5.88;5.40;;;;;;;;;;5111896;28;20574;-69
2022/08/24 14:56:18;;;;;;;5.40;5.00;;;;;;;;;;5112341;28;20234;-69
2022/08/24 14:58:50;;;;;;;5.53;5.03;;;;;;;;;;5112742;27;20205;-69
2022/08/24 15:01:35;;;;;;;5.57;5.18;;;;;;;;;;5112535;28;20629;-69
2022/08/24 15:04:11;;;;;;;5.72;5.22;;;;;;;;;;5112032;28;20203;-69
2022/08/24 15:06:43;;;;;;;5.68;5.18;;;;;;;;;;5111609;28;20210;-69
2022/08/24 15:09:12;;;;;;;6.10;5.60;;;;;;;;;;5113144;28;20199;-68
2022/08/24 15:11:41;;;;;;;6.22;5.60;;;;;;;;;;5112279;28;20214;-69
2022/08/24 15:14:10;;;;;;;5.63;5.20;;;;;;;;;;5112893;28;20198;-69
2022/08/24 15:16:45;;;;;;;5.95;5.45;;;;;;;;;;5111128;28;20279;-69
2022/08/24 15:19:15;;;;;;;6.18;5.60;;;;;;;;;;5111759;28;20426;-69
2022/08/24 15:21:46;;;;;;;6.32;5.82;;;;;;;;;;5111193;28;20210;-69